sensor_id;sensor_type;location;lat;lon;timestamp;pressure;altitude;pressure_sealevel;temperature;humidity
21760;BME280;11041;50.854;20.580;2023-12-22T00:00:59;95445.94;;;4.63;100.00
21760;BME280;11041;50.854;20.580;2023-12-22T00:03:42;95446.22;;;4.58;100.00
21760;BME280;11041;50.854;20.580;2023-12-22T00:06:14;95446.09;;;4.51;100.00
21760;BME280;11041;50.854;20.580;2023-12-22T00:08:43;95453.03;;;4.48;100.00
21760;BME280;11041;50.854;20.580;2023-12-22T00:11:09;95457.69;;;4.47;100.00
21760;BME280;11041;50.854;20.580;2023-12-22T00:13:36;95461.09;;;4.44;100.00
21760;BME280;11041;50.854;20.580;2023-12-22T00:16:03;95460.31;;;4.44;100.00
21760;BME280;11041;50.854;20.580;2023-12-22T00:18:35;95472.34;;;4.43;100.00
21760;BME280;11041;50.854;20.580;2023-12-22T00:21:04;95474.91;;;4.36;100.00
21760;BME280;11041;50.854;20.580;2023-12-22T00:23:33;95481.84;;;4.33;100.00
21760;BME280;11041;50.854;20.580;2023-12-22T00:26:04;95475.88;;;4.27;100.00
21760;BME280;11041;50.854;20.580;2023-12-22T00:28:35;95481.69;;;4.26;100.00
21760;BME280;11041;50.854;20.580;2023-12-22T00:31:04;95483.94;;;4.24;99.91
21760;BME280;11041;50.854;20.580;2023-12-22T00:33:34;95488.22;;;4.25;99.08
21760;BME280;11041;50.854;20.580;2023-12-22T00:36:03;95484.41;;;4.26;99.09
21760;BME280;11041;50.854;20.580;2023-12-22T00:38:30;95496.81;;;4.27;99.75
21760;BME280;11041;50.854;20.580;2023-12-22T00:40:57;95497.09;;;4.22;99.73
21760;BME280;11041;50.854;20.580;2023-12-22T00:43:31;95492.28;;;4.15;99.73
21760;BME280;11041;50.854;20.580;2023-12-22T00:46:00;95493.78;;;4.13;99.64
21760;BME280;11041;50.854;20.580;2023-12-22T00:48:32;95500.66;;;4.07;99.43
21760;BME280;11041;50.854;20.580;2023-12-22T00:51:01;95508.41;;;4.08;99.01
21760;BME280;11041;50.854;20.580;2023-12-22T00:53:30;95522.44;;;4.10;99.19
21760;BME280;11041;50.854;20.580;2023-12-22T00:55:57;95524.72;;;4.08;98.92
21760;BME280;11041;50.854;20.580;2023-12-22T00:58:29;95535.41;;;4.01;100.00
21760;BME280;11041;50.854;20.580;2023-12-22T01:00:58;95537.63;;;3.95;100.00
21760;BME280;11041;50.854;20.580;2023-12-22T01:03:29;95535.69;;;3.96;99.82
21760;BME280;11041;50.854;20.580;2023-12-22T01:06:02;95539.19;;;3.96;99.77
21760;BME280;11041;50.854;20.580;2023-12-22T01:08:29;95544.28;;;3.98;100.00
21760;BME280;11041;50.854;20.580;2023-12-22T01:11:00;95552.78;;;3.96;98.95
21760;BME280;11041;50.854;20.580;2023-12-22T01:13:27;95549.19;;;3.92;99.10
21760;BME280;11041;50.854;20.580;2023-12-22T01:15:56;95558.47;;;3.91;98.62
21760;BME280;11041;50.854;20.580;2023-12-22T01:18:24;95550.69;;;3.90;98.28
21760;BME280;11041;50.854;20.580;2023-12-22T01:20:54;95555.94;;;3.82;98.38
21760;BME280;11041;50.854;20.580;2023-12-22T01:23:25;95558.81;;;3.74;98.12
21760;BME280;11041;50.854;20.580;2023-12-22T01:25:52;95563.47;;;3.73;97.61
21760;BME280;11041;50.854;20.580;2023-12-22T01:28:19;95560.81;;;3.61;98.92
21760;BME280;11041;50.854;20.580;2023-12-22T01:30:48;95565.44;;;3.45;99.22
21760;BME280;11041;50.854;20.580;2023-12-22T01:33:18;95576.22;;;3.29;100.00
21760;BME280;11041;50.854;20.580;2023-12-22T01:35:51;95574.75;;;3.03;100.00
21760;BME280;11041;50.854;20.580;2023-12-22T01:38:20;95578.84;;;2.97;100.00
21760;BME280;11041;50.854;20.580;2023-12-22T01:40:51;95575.38;;;2.84;100.00
21760;BME280;11041;50.854;20.580;2023-12-22T01:43:18;95573.81;;;2.71;100.00
21760;BME280;11041;50.854;20.580;2023-12-22T01:45:55;95580.00;;;2.71;100.00
21760;BME280;11041;50.854;20.580;2023-12-22T01:48:24;95562.75;;;2.64;100.00
21760;BME280;11041;50.854;20.580;2023-12-22T01:50:55;95563.00;;;2.59;100.00
21760;BME280;11041;50.854;20.580;2023-12-22T01:53:28;95567.72;;;2.62;100.00
21760;BME280;11041;50.854;20.580;2023-12-22T01:55:58;95578.03;;;2.56;100.00
21760;BME280;11041;50.854;20.580;2023-12-22T01:58:30;95571.34;;;2.53;100.00
21760;BME280;11041;50.854;20.580;2023-12-22T02:01:05;95564.47;;;2.44;100.00
21760;BME280;11041;50.854;20.580;2023-12-22T02:03:38;95562.78;;;2.39;100.00
21760;BME280;11041;50.854;20.580;2023-12-22T02:06:06;95561.66;;;2.40;100.00
21760;BME280;11041;50.854;20.580;2023-12-22T02:08:37;95569.47;;;2.29;100.00
21760;BME280;11041;50.854;20.580;2023-12-22T02:11:04;95564.72;;;2.26;100.00
21760;BME280;11041;50.854;20.580;2023-12-22T02:13:36;95561.78;;;2.19;100.00
21760;BME280;11041;50.854;20.580;2023-12-22T02:16:21;95571.03;;;2.18;100.00
21760;BME280;11041;50.854;20.580;2023-12-22T02:18:55;95562.59;;;2.07;100.00
21760;BME280;11041;50.854;20.580;2023-12-22T02:21:24;95556.38;;;2.07;100.00
21760;BME280;11041;50.854;20.580;2023-12-22T02:23:52;95558.06;;;1.99;100.00
21760;BME280;11041;50.854;20.580;2023-12-22T02:26:42;95555.00;;;2.01;100.00
21760;BME280;11041;50.854;20.580;2023-12-22T02:29:17;95551.75;;;1.95;100.00
21760;BME280;11041;50.854;20.580;2023-12-22T02:31:51;95552.75;;;1.90;100.00
21760;BME280;11041;50.854;20.580;2023-12-22T02:34:24;95550.69;;;1.87;100.00
21760;BME280;11041;50.854;20.580;2023-12-22T02:36:58;95541.00;;;1.86;100.00
21760;BME280;11041;50.854;20.580;2023-12-22T02:39:25;95545.50;;;1.82;100.00
21760;BME280;11041;50.854;20.580;2023-12-22T02:41:56;95550.16;;;1.82;100.00
21760;BME280;11041;50.854;20.580;2023-12-22T02:44:27;95543.50;;;1.79;100.00
21760;BME280;11041;50.854;20.580;2023-12-22T02:46:58;95546.19;;;1.79;100.00
21760;BME280;11041;50.854;20.580;2023-12-22T02:49:25;95538.84;;;1.80;100.00
21760;BME280;11041;50.854;20.580;2023-12-22T02:51:57;95553.19;;;1.80;100.00
21760;BME280;11041;50.854;20.580;2023-12-22T02:54:31;95544.41;;;1.83;100.00
21760;BME280;11041;50.854;20.580;2023-12-22T02:56:59;95543.63;;;1.83;100.00
21760;BME280;11041;50.854;20.580;2023-12-22T02:59:30;95541.56;;;1.92;100.00
21760;BME280;11041;50.854;20.580;2023-12-22T03:01:58;95540.09;;;1.95;100.00
21760;BME280;11041;50.854;20.580;2023-12-22T03:04:28;95540.69;;;2.00;100.00
21760;BME280;11041;50.854;20.580;2023-12-22T03:06:55;95560.66;;;2.08;100.00
21760;BME280;11041;50.854;20.580;2023-12-22T03:09:24;95552.53;;;2.08;100.00
21760;BME280;11041;50.854;20.580;2023-12-22T03:11:55;95558.41;;;2.10;100.00
21760;BME280;11041;50.854;20.580;2023-12-22T03:14:32;95557.81;;;2.04;100.00
21760;BME280;11041;50.854;20.580;2023-12-22T03:17:00;95549.28;;;2.02;100.00
21760;BME280;11041;50.854;20.580;2023-12-22T03:19:27;95546.88;;;2.01;100.00
21760;BME280;11041;50.854;20.580;2023-12-22T03:21:55;95550.06;;;2.03;100.00
21760;BME280;11041;50.854;20.580;2023-12-22T03:24:26;95538.31;;;1.99;100.00
21760;BME280;11041;50.854;20.580;2023-12-22T03:26:56;95533.56;;;1.96;100.00
21760;BME280;11041;50.854;20.580;2023-12-22T03:29:27;95541.47;;;1.88;99.79
21760;BME280;11041;50.854;20.580;2023-12-22T03:31:58;95537.28;;;1.91;99.47
21760;BME280;11041;50.854;20.580;2023-12-22T03:34:29;95545.09;;;1.92;99.06
21760;BME280;11041;50.854;20.580;2023-12-22T03:36:55;95543.50;;;1.91;98.14
21760;BME280;11041;50.854;20.580;2023-12-22T03:39:25;95548.59;;;1.93;97.04
21760;BME280;11041;50.854;20.580;2023-12-22T03:41:56;95536.75;;;1.98;96.84
21760;BME280;11041;50.854;20.580;2023-12-22T03:44:23;95541.03;;;1.99;96.75
21760;BME280;11041;50.854;20.580;2023-12-22T03:46:51;95534.91;;;1.89;96.25
21760;BME280;11041;50.854;20.580;2023-12-22T03:49:18;95538.41;;;1.90;95.39
21760;BME280;11041;50.854;20.580;2023-12-22T03:51:48;95541.56;;;1.92;94.23
21760;BME280;11041;50.854;20.580;2023-12-22T03:54:18;95544.19;;;1.88;94.02
21760;BME280;11041;50.854;20.580;2023-12-22T03:56:45;95524.78;;;1.86;93.39
21760;BME280;11041;50.854;20.580;2023-12-22T03:59:14;95544.28;;;1.92;93.19
21760;BME280;11041;50.854;20.580;2023-12-22T04:01:43;95549.13;;;1.86;92.06
21760;BME280;11041;50.854;20.580;2023-12-22T04:04:10;95537.63;;;1.89;91.82
21760;BME280;11041;50.854;20.580;2023-12-22T04:06:40;95524.00;;;1.86;92.12
21760;BME280;11041;50.854;20.580;2023-12-22T04:09:09;95540.91;;;1.83;92.11
21760;BME280;11041;50.854;20.580;2023-12-22T04:11:37;95538.41;;;1.78;92.44
21760;BME280;11041;50.854;20.580;2023-12-22T04:14:10;95535.91;;;1.73;93.15
21760;BME280;11041;50.854;20.580;2023-12-22T04:16:40;95550.34;;;1.64;93.16
21760;BME280;11041;50.854;20.580;2023-12-22T04:19:11;95553.06;;;1.64;93.33
21760;BME280;11041;50.854;20.580;2023-12-22T04:21:38;95548.75;;;1.63;93.31
21760;BME280;11041;50.854;20.580;2023-12-22T04:24:09;95558.69;;;1.59;93.44
21760;BME280;11041;50.854;20.580;2023-12-22T04:26:36;95554.75;;;1.57;93.93
21760;BME280;11041;50.854;20.580;2023-12-22T04:29:03;95561.94;;;1.53;93.44
21760;BME280;11041;50.854;20.580;2023-12-22T04:31:34;95564.19;;;1.51;94.09
21760;BME280;11041;50.854;20.580;2023-12-22T04:34:04;95580.56;;;1.54;94.15
21760;BME280;11041;50.854;20.580;2023-12-22T04:36:33;95578.41;;;1.47;94.39
21760;BME280;11041;50.854;20.580;2023-12-22T04:39:02;95579.50;;;1.46;94.36
21760;BME280;11041;50.854;20.580;2023-12-22T04:41:31;95569.81;;;1.45;94.38
21760;BME280;11041;50.854;20.580;2023-12-22T04:44:04;95572.84;;;1.44;94.34
21760;BME280;11041;50.854;20.580;2023-12-22T04:46:31;95584.47;;;1.44;94.34
21760;BME280;11041;50.854;20.580;2023-12-22T04:48:58;95574.44;;;1.45;94.58
21760;BME280;11041;50.854;20.580;2023-12-22T04:51:26;95584.00;;;1.42;94.43
21760;BME280;11041;50.854;20.580;2023-12-22T04:53:55;95571.13;;;1.39;94.68
21760;BME280;11041;50.854;20.580;2023-12-22T04:56:22;95585.91;;;1.42;94.93
21760;BME280;11041;50.854;20.580;2023-12-22T04:58:52;95587.03;;;1.41;94.90
21760;BME280;11041;50.854;20.580;2023-12-22T05:01:23;95594.03;;;1.42;94.76
21760;BME280;11041;50.854;20.580;2023-12-22T05:03:50;95581.41;;;1.46;94.09
21760;BME280;11041;50.854;20.580;2023-12-22T05:06:20;95594.50;;;1.44;94.39
21760;BME280;11041;50.854;20.580;2023-12-22T05:08:50;95596.88;;;1.45;93.89
21760;BME280;11041;50.854;20.580;2023-12-22T05:11:20;95595.72;;;1.46;93.71
21760;BME280;11041;50.854;20.580;2023-12-22T05:13:47;95607.03;;;1.48;93.60
21760;BME280;11041;50.854;20.580;2023-12-22T05:16:15;95588.44;;;1.47;93.17
21760;BME280;11041;50.854;20.580;2023-12-22T05:18:43;95592.38;;;1.49;92.28
21760;BME280;11041;50.854;20.580;2023-12-22T05:21:13;95601.06;;;1.55;92.16
21760;BME280;11041;50.854;20.580;2023-12-22T05:23:41;95591.03;;;1.56;91.41
21760;BME280;11041;50.854;20.580;2023-12-22T05:26:10;95594.66;;;1.60;91.45
21760;BME280;11041;50.854;20.580;2023-12-22T05:28:42;95600.06;;;1.60;91.11
21760;BME280;11041;50.854;20.580;2023-12-22T05:31:09;95595.56;;;1.64;90.93
21760;BME280;11041;50.854;20.580;2023-12-22T05:33:36;95608.19;;;1.60;90.47
21760;BME280;11041;50.854;20.580;2023-12-22T05:36:04;95599.75;;;1.61;90.74
21760;BME280;11041;50.854;20.580;2023-12-22T05:38:31;95602.22;;;1.54;90.98
21760;BME280;11041;50.854;20.580;2023-12-22T05:40:59;95601.19;;;1.59;90.85
21760;BME280;11041;50.854;20.580;2023-12-22T05:43:26;95598.69;;;1.54;90.70
21760;BME280;11041;50.854;20.580;2023-12-22T05:45:55;95593.94;;;1.51;90.38
21760;BME280;11041;50.854;20.580;2023-12-22T05:48:24;95608.94;;;1.48;90.23
21760;BME280;11041;50.854;20.580;2023-12-22T05:50:53;95600.81;;;1.48;90.91
21760;BME280;11041;50.854;20.580;2023-12-22T05:53:25;95595.72;;;1.46;90.72
21760;BME280;11041;50.854;20.580;2023-12-22T05:55:54;95606.13;;;1.44;91.02
21760;BME280;11041;50.854;20.580;2023-12-22T05:58:22;95602.50;;;1.40;90.44
21760;BME280;11041;50.854;20.580;2023-12-22T06:00:49;95588.50;;;1.38;90.41
21760;BME280;11041;50.854;20.580;2023-12-22T06:03:16;95592.34;;;1.37;89.92
21760;BME280;11041;50.854;20.580;2023-12-22T06:05:46;95595.84;;;1.38;89.68
21760;BME280;11041;50.854;20.580;2023-12-22T06:08:17;95594.13;;;1.33;89.75
21760;BME280;11041;50.854;20.580;2023-12-22T06:10:48;95596.38;;;1.31;89.73
21760;BME280;11041;50.854;20.580;2023-12-22T06:13:19;95603.09;;;1.25;89.67
21760;BME280;11041;50.854;20.580;2023-12-22T06:15:54;95602.78;;;1.26;89.59
21760;BME280;11041;50.854;20.580;2023-12-22T06:18:21;95607.41;;;1.26;89.37
21760;BME280;11041;50.854;20.580;2023-12-22T06:20:50;95625.19;;;1.27;89.12
21760;BME280;11041;50.854;20.580;2023-12-22T06:23:17;95617.91;;;1.27;89.25
21760;BME280;11041;50.854;20.580;2023-12-22T06:25:47;95631.59;;;1.22;88.66
21760;BME280;11041;50.854;20.580;2023-12-22T06:28:18;95625.66;;;1.29;88.88
21760;BME280;11041;50.854;20.580;2023-12-22T06:30:48;95633.09;;;1.32;87.42
21760;BME280;11041;50.854;20.580;2023-12-22T06:33:19;95642.94;;;1.37;87.26
21760;BME280;11041;50.854;20.580;2023-12-22T06:35:49;95652.03;;;1.32;87.16
21760;BME280;11041;50.854;20.580;2023-12-22T06:38:24;95646.00;;;1.35;86.63
21760;BME280;11041;50.854;20.580;2023-12-22T06:40:51;95660.03;;;1.28;86.38
21760;BME280;11041;50.854;20.580;2023-12-22T06:43:20;95659.00;;;1.21;86.73
21760;BME280;11041;50.854;20.580;2023-12-22T06:45:49;95646.38;;;1.25;86.84
21760;BME280;11041;50.854;20.580;2023-12-22T06:48:20;95662.16;;;1.23;87.12
21760;BME280;11041;50.854;20.580;2023-12-22T06:50:52;95673.41;;;1.25;87.00
21760;BME280;11041;50.854;20.580;2023-12-22T06:53:22;95681.25;;;1.18;88.56
21760;BME280;11041;50.854;20.580;2023-12-22T06:55:54;95697.31;;;1.23;88.54
21760;BME280;11041;50.854;20.580;2023-12-22T06:58:26;95685.16;;;1.29;89.12
21760;BME280;11041;50.854;20.580;2023-12-22T07:00:55;95683.72;;;1.32;88.38
21760;BME280;11041;50.854;20.580;2023-12-22T07:03:26;95703.97;;;1.25;86.86
21760;BME280;11041;50.854;20.580;2023-12-22T07:05:56;95695.66;;;1.31;86.24
21760;BME280;11041;50.854;20.580;2023-12-22T07:08:23;95707.75;;;1.33;85.54
21760;BME280;11041;50.854;20.580;2023-12-22T07:10:49;95730.84;;;1.31;86.17
21760;BME280;11041;50.854;20.580;2023-12-22T07:13:19;95711.94;;;1.22;86.01
21760;BME280;11041;50.854;20.580;2023-12-22T07:15:48;95718.50;;;1.21;85.62
21760;BME280;11041;50.854;20.580;2023-12-22T07:18:15;95717.88;;;1.15;88.86
21760;BME280;11041;50.854;20.580;2023-12-22T07:20:45;95731.00;;;1.04;92.95
21760;BME280;11041;50.854;20.580;2023-12-22T07:23:15;95733.16;;;0.90;93.70
21760;BME280;11041;50.854;20.580;2023-12-22T07:25:47;95745.72;;;0.86;94.47
21760;BME280;11041;50.854;20.580;2023-12-22T07:28:16;95746.56;;;0.78;93.64
21760;BME280;11041;50.854;20.580;2023-12-22T07:30:44;95745.97;;;0.72;93.33
21760;BME280;11041;50.854;20.580;2023-12-22T07:33:12;95733.06;;;0.78;93.45
21760;BME280;11041;50.854;20.580;2023-12-22T07:35:45;95755.34;;;0.75;93.39
21760;BME280;11041;50.854;20.580;2023-12-22T07:38:19;95753.91;;;0.77;91.76
21760;BME280;11041;50.854;20.580;2023-12-22T07:40:45;95764.19;;;0.84;90.78
21760;BME280;11041;50.854;20.580;2023-12-22T07:43:16;95776.25;;;0.87;89.72
21760;BME280;11041;50.854;20.580;2023-12-22T07:45:42;95777.84;;;0.88;89.84
21760;BME280;11041;50.854;20.580;2023-12-22T07:48:12;95781.81;;;0.90;89.86
21760;BME280;11041;50.854;20.580;2023-12-22T07:50:40;95773.19;;;0.97;90.08
21760;BME280;11041;50.854;20.580;2023-12-22T07:53:14;95773.50;;;0.95;89.10
21760;BME280;11041;50.854;20.580;2023-12-22T07:55:40;95792.41;;;1.04;88.98
21760;BME280;11041;50.854;20.580;2023-12-22T07:58:08;95792.53;;;1.08;87.61
21760;BME280;11041;50.854;20.580;2023-12-22T08:00:38;95788.53;;;1.14;88.08
21760;BME280;11041;50.854;20.580;2023-12-22T08:03:10;95800.00;;;1.11;87.23
21760;BME280;11041;50.854;20.580;2023-12-22T08:05:40;95795.53;;;1.15;87.33
21760;BME280;11041;50.854;20.580;2023-12-22T08:08:06;95790.09;;;1.15;87.11
21760;BME280;11041;50.854;20.580;2023-12-22T08:10:36;95789.00;;;1.16;86.60
21760;BME280;11041;50.854;20.580;2023-12-22T08:13:07;95795.03;;;1.13;86.06
21760;BME280;11041;50.854;20.580;2023-12-22T08:15:37;95790.97;;;1.06;85.78
21760;BME280;11041;50.854;20.580;2023-12-22T08:18:05;95786.63;;;1.14;86.93
21760;BME280;11041;50.854;20.580;2023-12-22T08:20:40;95798.22;;;1.15;86.16
21760;BME280;11041;50.854;20.580;2023-12-22T08:23:15;95789.91;;;1.20;85.46
21760;BME280;11041;50.854;20.580;2023-12-22T08:25:45;95811.50;;;1.28;84.98
21760;BME280;11041;50.854;20.580;2023-12-22T08:28:16;95803.34;;;1.37;84.34
21760;BME280;11041;50.854;20.580;2023-12-22T08:30:47;95809.16;;;1.48;84.45
21760;BME280;11041;50.854;20.580;2023-12-22T08:33:16;95812.34;;;1.50;83.29
21760;BME280;11041;50.854;20.580;2023-12-22T08:35:45;95822.50;;;1.53;82.72
21760;BME280;11041;50.854;20.580;2023-12-22T08:38:15;95835.06;;;1.58;82.23
21760;BME280;11041;50.854;20.580;2023-12-22T08:40:45;95816.91;;;1.58;82.83
21760;BME280;11041;50.854;20.580;2023-12-22T08:43:16;95824.53;;;1.56;81.95
21760;BME280;11041;50.854;20.580;2023-12-22T08:45:48;95808.19;;;1.53;81.47
21760;BME280;11041;50.854;20.580;2023-12-22T08:48:17;95810.22;;;1.56;81.96
21760;BME280;11041;50.854;20.580;2023-12-22T08:50:52;95820.53;;;1.62;80.91
21760;BME280;11041;50.854;20.580;2023-12-22T08:53:23;95821.78;;;1.65;81.09
21760;BME280;11041;50.854;20.580;2023-12-22T08:55:56;95814.41;;;1.74;81.59
21760;BME280;11041;50.854;20.580;2023-12-22T08:58:24;95808.78;;;1.79;80.55
21760;BME280;11041;50.854;20.580;2023-12-22T09:00:50;95800.34;;;1.81;79.82
21760;BME280;11041;50.854;20.580;2023-12-22T09:03:20;95804.09;;;1.88;80.16
21760;BME280;11041;50.854;20.580;2023-12-22T09:05:50;95803.44;;;1.91;79.91
21760;BME280;11041;50.854;20.580;2023-12-22T09:08:17;95812.94;;;1.98;79.70
21760;BME280;11041;50.854;20.580;2023-12-22T09:10:45;95812.06;;;2.06;80.17
21760;BME280;11041;50.854;20.580;2023-12-22T09:13:15;95801.50;;;2.13;79.70
21760;BME280;11041;50.854;20.580;2023-12-22T09:15:44;95799.78;;;2.08;76.73
21760;BME280;11041;50.854;20.580;2023-12-22T09:18:16;95797.31;;;2.16;76.87
21760;BME280;11041;50.854;20.580;2023-12-22T09:20:42;95798.25;;;2.20;78.70
21760;BME280;11041;50.854;20.580;2023-12-22T09:23:13;95785.03;;;2.18;76.86
21760;BME280;11041;50.854;20.580;2023-12-22T09:25:43;95782.00;;;2.20;78.09
21760;BME280;11041;50.854;20.580;2023-12-22T09:28:11;95780.53;;;2.22;76.89
21760;BME280;11041;50.854;20.580;2023-12-22T09:30:41;95761.38;;;2.27;77.43
21760;BME280;11041;50.854;20.580;2023-12-22T09:33:12;95764.00;;;2.36;76.63
21760;BME280;11041;50.854;20.580;2023-12-22T09:35:46;95766.56;;;2.32;77.14
21760;BME280;11041;50.854;20.580;2023-12-22T09:38:13;95740.38;;;2.24;75.97
21760;BME280;11041;50.854;20.580;2023-12-22T09:40:43;95745.06;;;2.15;77.19
21760;BME280;11041;50.854;20.580;2023-12-22T09:43:14;95750.34;;;2.11;78.59
21760;BME280;11041;50.854;20.580;2023-12-22T09:45:41;95736.13;;;2.02;78.75
21760;BME280;11041;50.854;20.580;2023-12-22T09:48:15;95735.22;;;1.98;78.76
21760;BME280;11041;50.854;20.580;2023-12-22T09:50:44;95735.22;;;1.98;79.85
21760;BME280;11041;50.854;20.580;2023-12-22T09:53:15;95724.94;;;2.04;81.24
21760;BME280;11041;50.854;20.580;2023-12-22T09:55:48;95747.81;;;1.94;81.49
21760;BME280;11041;50.854;20.580;2023-12-22T09:58:23;95731.31;;;1.87;82.65
21760;BME280;11041;50.854;20.580;2023-12-22T10:00:53;95733.56;;;1.85;83.22
21760;BME280;11041;50.854;20.580;2023-12-22T10:03:26;95726.84;;;1.70;88.57
21760;BME280;11041;50.854;20.580;2023-12-22T10:05:55;95739.41;;;1.33;94.35
21760;BME280;11041;50.854;20.580;2023-12-22T10:08:26;95729.69;;;1.11;98.79
21760;BME280;11041;50.854;20.580;2023-12-22T10:10:54;95725.63;;;0.96;100.00
21760;BME280;11041;50.854;20.580;2023-12-22T10:13:21;95715.88;;;0.82;100.00
21760;BME280;11041;50.854;20.580;2023-12-22T10:15:48;95713.19;;;0.74;100.00
21760;BME280;11041;50.854;20.580;2023-12-22T10:18:15;95695.94;;;0.57;100.00
21760;BME280;11041;50.854;20.580;2023-12-22T10:20:43;95691.88;;;0.51;100.00
21760;BME280;11041;50.854;20.580;2023-12-22T10:23:13;95697.75;;;0.45;100.00
21760;BME280;11041;50.854;20.580;2023-12-22T10:25:41;95712.13;;;0.36;100.00
21760;BME280;11041;50.854;20.580;2023-12-22T10:28:15;95717.34;;;0.41;100.00
21760;BME280;11041;50.854;20.580;2023-12-22T10:30:49;95703.47;;;0.43;100.00
21760;BME280;11041;50.854;20.580;2023-12-22T10:33:18;95737.50;;;0.44;100.00
21760;BME280;11041;50.854;20.580;2023-12-22T10:35:46;95733.34;;;0.47;100.00
21760;BME280;11041;50.854;20.580;2023-12-22T10:38:12;95733.38;;;0.38;100.00
21760;BME280;11041;50.854;20.580;2023-12-22T10:40:40;95718.63;;;0.35;100.00
21760;BME280;11041;50.854;20.580;2023-12-22T10:43:08;95711.47;;;0.39;100.00
21760;BME280;11041;50.854;20.580;2023-12-22T10:45:37;95714.47;;;0.38;100.00
21760;BME280;11041;50.854;20.580;2023-12-22T10:48:06;95714.94;;;0.40;100.00
21760;BME280;11041;50.854;20.580;2023-12-22T10:50:33;95708.75;;;0.39;100.00
21760;BME280;11041;50.854;20.580;2023-12-22T10:53:05;95704.50;;;0.30;100.00
21760;BME280;11041;50.854;20.580;2023-12-22T10:55:34;95697.50;;;0.29;100.00
21760;BME280;11041;50.854;20.580;2023-12-22T10:58:07;95714.66;;;0.33;100.00
21760;BME280;11041;50.854;20.580;2023-12-22T11:00:40;95708.16;;;0.34;100.00
21760;BME280;11041;50.854;20.580;2023-12-22T11:03:16;95700.78;;;0.43;100.00
21760;BME280;11041;50.854;20.580;2023-12-22T11:05:46;95724.47;;;0.46;100.00
21760;BME280;11041;50.854;20.580;2023-12-22T11:08:17;95717.81;;;0.44;100.00
21760;BME280;11041;50.854;20.580;2023-12-22T11:10:55;95719.84;;;0.47;100.00
21760;BME280;11041;50.854;20.580;2023-12-22T11:13:24;95694.56;;;0.51;100.00
21760;BME280;11041;50.854;20.580;2023-12-22T11:15:56;95695.81;;;0.54;100.00
21760;BME280;11041;50.854;20.580;2023-12-22T11:18:27;95706.13;;;0.60;100.00
21760;BME280;11041;50.854;20.580;2023-12-22T11:20:55;95699.88;;;0.69;100.00
21760;BME280;11041;50.854;20.580;2023-12-22T11:23:25;95680.66;;;0.70;100.00
21760;BME280;11041;50.854;20.580;2023-12-22T11:25:53;95693.03;;;0.71;100.00
21760;BME280;11041;50.854;20.580;2023-12-22T11:28:23;95695.88;;;0.75;100.00
21760;BME280;11041;50.854;20.580;2023-12-22T11:30:52;95694.44;;;0.77;100.00
21760;BME280;11041;50.854;20.580;2023-12-22T11:33:21;95682.03;;;0.76;100.00
21760;BME280;11041;50.854;20.580;2023-12-22T11:35:52;95683.94;;;0.76;100.00
21760;BME280;11041;50.854;20.580;2023-12-22T11:38:23;95674.59;;;0.73;100.00
21760;BME280;11041;50.854;20.580;2023-12-22T11:40:53;95664.94;;;0.63;100.00
21760;BME280;11041;50.854;20.580;2023-12-22T11:43:21;95675.09;;;0.67;100.00
21760;BME280;11041;50.854;20.580;2023-12-22T11:45:52;95668.69;;;0.71;100.00
21760;BME280;11041;50.854;20.580;2023-12-22T11:48:20;95663.31;;;0.71;100.00
21760;BME280;11041;50.854;20.580;2023-12-22T11:50:49;95661.38;;;0.72;100.00
21760;BME280;11041;50.854;20.580;2023-12-22T11:53:24;95666.47;;;0.73;100.00
21760;BME280;11041;50.854;20.580;2023-12-22T11:55:59;95647.94;;;0.84;100.00
21760;BME280;11041;50.854;20.580;2023-12-22T11:58:44;95653.00;;;0.94;100.00
21760;BME280;11041;50.854;20.580;2023-12-22T12:01:23;95637.66;;;0.98;100.00
21760;BME280;11041;50.854;20.580;2023-12-22T12:03:51;95637.03;;;1.01;100.00
21760;BME280;11041;50.854;20.580;2023-12-22T12:08:57;95629.66;;;0.90;100.00
21760;BME280;11041;50.854;20.580;2023-12-22T12:14:32;95610.25;;;0.88;100.00
21760;BME280;11041;50.854;20.580;2023-12-22T12:17:09;95598.00;;;0.90;100.00
21760;BME280;11041;50.854;20.580;2023-12-22T12:19:40;95611.81;;;0.89;100.00
21760;BME280;11041;50.854;20.580;2023-12-22T12:22:12;95607.75;;;0.82;100.00
21760;BME280;11041;50.854;20.580;2023-12-22T12:24:42;95596.72;;;0.67;100.00
21760;BME280;11041;50.854;20.580;2023-12-22T12:27:09;95601.25;;;0.54;100.00
21760;BME280;11041;50.854;20.580;2023-12-22T12:29:40;95588.06;;;0.52;100.00
21760;BME280;11041;50.854;20.580;2023-12-22T12:32:07;95609.41;;;0.45;100.00
21760;BME280;11041;50.854;20.580;2023-12-22T12:34:35;95599.28;;;0.42;100.00
21760;BME280;11041;50.854;20.580;2023-12-22T12:37:02;95579.31;;;0.34;100.00
21760;BME280;11041;50.854;20.580;2023-12-22T12:39:30;95596.47;;;0.30;100.00
21760;BME280;11041;50.854;20.580;2023-12-22T12:42:01;95607.28;;;0.30;100.00
21760;BME280;11041;50.854;20.580;2023-12-22T12:44:30;95600.44;;;0.32;100.00
21760;BME280;11041;50.854;20.580;2023-12-22T12:46:59;95621.06;;;0.37;100.00
21760;BME280;11041;50.854;20.580;2023-12-22T12:49:26;95612.31;;;0.40;100.00
21760;BME280;11041;50.854;20.580;2023-12-22T12:51:56;95588.75;;;0.49;100.00
21760;BME280;11041;50.854;20.580;2023-12-22T12:54:23;95590.94;;;0.56;100.00
21760;BME280;11041;50.854;20.580;2023-12-22T12:56:50;95621.81;;;0.67;100.00
21760;BME280;11041;50.854;20.580;2023-12-22T12:59:18;95621.50;;;0.69;100.00
21760;BME280;11041;50.854;20.580;2023-12-22T13:01:46;95634.09;;;0.64;100.00
21760;BME280;11041;50.854;20.580;2023-12-22T13:04:15;95638.97;;;0.71;100.00
21760;BME280;11041;50.854;20.580;2023-12-22T13:06:49;95646.03;;;0.63;100.00
21760;BME280;11041;50.854;20.580;2023-12-22T13:09:17;95647.78;;;0.59;100.00
21760;BME280;11041;50.854;20.580;2023-12-22T13:11:46;95649.03;;;0.62;100.00
21760;BME280;11041;50.854;20.580;2023-12-22T13:14:23;95664.75;;;0.69;100.00